createdAt,value
2019-02-08T02:21:33.629Z,5.77
2019-02-08T02:23:55.969Z,3.47
2019-02-08T02:29:52.087Z,2.00
2019-02-08T02:31:31.169Z,3.20
2019-02-08T02:33:50.757Z,1.40
2019-02-08T02:36:13.100Z,1.97
2019-02-08T02:38:34.176Z,2.27
2019-02-08T02:43:24.505Z,1.13
2019-02-08T02:46:01.779Z,1.10
2019-02-08T02:48:44.557Z,1.93
2019-02-08T02:51:22.901Z,0.87
2019-02-08T02:54:05.207Z,1.50
2019-02-08T02:56:36.412Z,2.00
2019-02-08T02:59:04.282Z,1.93
2019-02-08T03:01:39.556Z,0.80
2019-02-08T03:04:03.930Z,0.80
2019-02-08T03:06:52.063Z,0.70
2019-02-08T03:09:32.578Z,1.03
2019-02-08T03:11:45.576Z,2.27
2019-02-08T03:17:11.099Z,1.30
2019-02-08T03:19:49.741Z,0.83
2019-02-08T03:22:05.260Z,1.40
2019-02-08T03:24:19.618Z,1.30
2019-02-08T03:29:05.058Z,1.43
2019-02-08T03:31:18.066Z,0.80
2019-02-08T03:33:31.210Z,1.13
2019-02-08T03:35:45.539Z,0.73
2019-02-08T03:37:56.412Z,1.60
2019-02-08T03:40:13.202Z,2.00
2019-02-08T03:42:30.917Z,1.03
2019-02-08T03:44:40.702Z,0.77
2019-02-08T03:46:53.498Z,1.17
2019-02-08T03:49:13.308Z,1.03
2019-02-08T03:51:23.435Z,0.53
2019-02-08T03:53:36.358Z,0.83
2019-02-08T03:55:46.426Z,1.27
2019-02-08T03:57:54.039Z,1.33
2019-02-08T04:00:01.378Z,1.40
2019-02-08T04:02:10.711Z,1.87
2019-02-08T04:04:24.613Z,0.97
2019-02-08T04:06:36.612Z,1.27
2019-02-08T04:08:49.685Z,1.03
2019-02-08T04:11:02.361Z,1.03
2019-02-08T04:13:13.858Z,0.50
2019-02-08T04:15:28.480Z,0.60
2019-02-08T04:17:41.192Z,1.00
2019-02-08T04:20:32.230Z,0.70
2019-02-08T04:22:20.632Z,1.03
2019-02-08T04:24:41.237Z,3.80
2019-02-08T04:27:19.733Z,1.10
2019-02-08T04:29:36.122Z,0.60
2019-02-08T04:31:44.370Z,0.43
2019-02-08T04:34:30.658Z,0.60
2019-02-08T04:36:47.468Z,0.50
2019-02-08T04:39:01.518Z,0.60
2019-02-08T04:41:20.597Z,0.60
2019-02-08T04:43:49.470Z,0.80
2019-02-08T04:45:58.202Z,0.70
2019-02-08T04:48:05.880Z,0.70
2019-02-08T04:50:15.654Z,0.50
2019-02-08T04:52:23.053Z,0.60
2019-02-08T04:54:52.299Z,0.50
2019-02-08T04:57:12.409Z,0.43
2019-02-08T04:59:20.881Z,1.00
2019-02-08T05:01:39.831Z,0.40
2019-02-08T05:03:47.297Z,0.50
2019-02-08T05:05:55.365Z,0.77
2019-02-08T05:08:03.411Z,0.43
2019-02-08T05:10:17.095Z,0.50
2019-02-08T05:12:24.736Z,0.30
2019-02-08T05:14:32.045Z,0.57
2019-02-08T05:16:39.383Z,0.40
2019-02-08T05:18:48.011Z,0.43
2019-02-08T05:20:56.172Z,0.80
2019-02-08T05:23:05.086Z,0.50
2019-02-08T05:25:12.796Z,0.70
2019-02-08T05:27:20.065Z,0.73
2019-02-08T05:29:27.328Z,0.80
2019-02-08T05:31:39.901Z,1.33
2019-02-08T05:33:59.950Z,0.50
2019-02-08T05:36:30.894Z,1.10
2019-02-08T05:38:36.714Z,0.40
2019-02-08T05:40:44.512Z,0.40
2019-02-08T05:42:52.969Z,0.43
2019-02-08T05:45:00.637Z,0.50
2019-02-08T05:47:08.671Z,0.77
2019-02-08T05:49:17.367Z,0.50
2019-02-08T05:51:24.892Z,0.40
2019-02-08T05:53:32.258Z,0.60
2019-02-08T05:55:40.099Z,0.40
2019-02-08T05:57:48.374Z,0.53
2019-02-08T05:59:56.059Z,1.63
2019-02-08T06:02:03.817Z,0.40
2019-02-08T06:04:12.617Z,0.50
2019-02-08T06:06:21.227Z,0.50
2019-02-08T06:08:28.663Z,0.50
2019-02-08T06:10:35.861Z,0.40
2019-02-08T06:12:44.403Z,0.97
2019-02-08T06:14:52.255Z,0.50
2019-02-08T06:16:59.487Z,0.30
2019-02-08T06:19:07.935Z,0.93
2019-02-08T06:21:15.075Z,0.57
2019-02-08T06:23:22.271Z,0.20
2019-02-08T06:25:30.935Z,0.30
2019-02-08T06:27:39.985Z,0.57
2019-02-08T06:29:47.786Z,0.43
2019-02-08T06:31:55.590Z,1.13
2019-02-08T06:34:03.121Z,0.40
2019-02-08T06:36:10.580Z,0.30
2019-02-08T06:38:18.037Z,0.73
2019-02-08T06:40:26.928Z,0.60
2019-02-08T06:42:34.132Z,1.30
2019-02-08T06:44:42.206Z,0.40
2019-02-08T06:46:49.629Z,0.57
2019-02-08T06:48:56.938Z,0.87
2019-02-08T06:51:04.414Z,0.30
2019-02-08T06:53:11.877Z,0.43
2019-02-08T06:55:19.951Z,0.60
2019-02-08T06:57:42.471Z,0.20
2019-02-08T07:00:21.929Z,0.30
2019-02-08T07:02:48.390Z,0.53
2019-02-08T07:05:17.455Z,0.33
2019-02-08T07:07:49.436Z,0.30
2019-02-08T07:10:15.855Z,0.30
2019-02-08T07:12:35.251Z,0.40
2019-02-08T07:15:02.447Z,0.63
2019-02-08T07:17:28.606Z,0.30
2019-02-08T07:19:57.368Z,0.83
2019-02-08T07:22:27.640Z,0.30
2019-02-08T07:24:49.808Z,0.93
2019-02-08T07:30:39.934Z,0.33
2019-02-08T07:33:21.885Z,0.30
2019-02-08T07:35:51.460Z,0.20
2019-02-08T07:38:25.484Z,0.20
2019-02-08T07:41:08.512Z,1.07
2019-02-08T07:43:39.955Z,0.40
2019-02-08T07:46:05.514Z,0.37
2019-02-08T07:48:20.681Z,0.30
2019-02-08T07:50:36.925Z,0.53
2019-02-08T07:53:05.009Z,0.40
2019-02-08T07:55:36.304Z,0.43
2019-02-08T07:58:08.209Z,0.40
2019-02-08T08:00:39.362Z,0.40
2019-02-08T08:03:12.429Z,0.30
2019-02-08T08:05:30.374Z,0.30
2019-02-08T08:07:56.242Z,0.30
2019-02-08T08:10:18.223Z,0.77
2019-02-08T08:12:49.941Z,0.30
2019-02-08T08:15:22.254Z,0.30
2019-02-08T08:17:47.357Z,0.20
2019-02-08T08:20:12.213Z,0.40
2019-02-08T08:22:38.295Z,0.50
2019-02-08T08:24:56.795Z,0.20
2019-02-08T08:27:19.574Z,0.40
2019-02-08T08:29:41.004Z,0.30
2019-02-08T08:31:59.242Z,0.30
2019-02-08T08:34:15.711Z,0.40
2019-02-08T08:36:56.005Z,0.30
2019-02-08T08:39:43.090Z,0.50
2019-02-08T08:42:10.811Z,0.23
2019-02-08T08:45:15.112Z,0.30
2019-02-08T08:48:18.400Z,0.20
2019-02-08T08:51:07.827Z,0.30
2019-02-08T08:53:53.092Z,0.30
2019-02-08T08:56:31.959Z,0.20
2019-02-08T08:59:23.349Z,0.30
2019-02-08T09:02:18.633Z,0.30
2019-02-08T09:05:10.557Z,0.77
2019-02-08T09:07:47.965Z,0.20
2019-02-08T09:10:53.218Z,0.50
2019-02-08T09:13:31.461Z,0.43
2019-02-08T09:16:09.514Z,0.70
2019-02-08T09:18:47.088Z,0.23
2019-02-08T09:21:59.663Z,0.73
2019-02-08T09:24:31.428Z,0.20
2019-02-08T09:27:24.199Z,0.20
2019-02-08T09:30:07.065Z,0.10
2019-02-08T09:32:56.505Z,1.23
2019-02-08T09:35:40.191Z,0.20
2019-02-08T09:38:32.512Z,0.67
2019-02-08T09:41:34.132Z,0.13
2019-02-08T09:44:25.438Z,0.40
2019-02-08T09:47:12.632Z,0.20
2019-02-08T09:50:06.153Z,0.37
2019-02-08T09:52:59.617Z,0.40
2019-02-08T09:55:46.760Z,0.20
2019-02-08T09:58:37.634Z,0.40
2019-02-08T10:01:33.002Z,0.23
2019-02-08T10:04:08.625Z,0.20
2019-02-08T10:07:00.761Z,0.13
2019-02-08T10:09:36.207Z,0.37
2019-02-08T10:12:41.608Z,0.30
2019-02-08T10:15:24.448Z,0.20
2019-02-08T10:18:26.828Z,0.80
2019-02-08T10:21:24.283Z,0.20
2019-02-08T10:24:16.408Z,0.20
2019-02-08T10:26:59.253Z,0.30
2019-02-08T10:29:27.819Z,0.20
2019-02-08T10:32:12.656Z,0.50
2019-02-08T10:34:55.280Z,0.80
2019-02-08T10:37:37.352Z,0.20
2019-02-08T10:40:07.255Z,0.80
2019-02-08T10:42:49.253Z,0.20
2019-02-08T10:45:24.037Z,0.20
2019-02-08T10:47:58.726Z,0.40
2019-02-08T10:50:47.562Z,0.20
2019-02-08T10:53:30.458Z,0.40
2019-02-08T10:56:24.542Z,0.50
2019-02-08T10:59:05.880Z,0.20
2019-02-08T11:01:49.094Z,0.20
2019-02-08T11:04:39.594Z,0.27
2019-02-08T11:07:51.366Z,0.40
2019-02-08T11:10:40.673Z,0.30
2019-02-08T11:13:38.655Z,0.20
2019-02-08T11:16:36.510Z,0.40
2019-02-08T11:19:19.926Z,0.20
2019-02-08T11:21:27.415Z,0.53
2019-02-08T11:23:35.284Z,0.47
2019-02-08T11:25:42.553Z,0.20
2019-02-08T11:27:49.976Z,0.40
2019-02-08T11:29:57.256Z,0.37
2019-02-08T11:32:04.695Z,0.30
2019-02-08T11:34:12.127Z,0.30
2019-02-08T11:36:20.316Z,0.20
2019-02-08T11:38:27.725Z,0.30
2019-02-08T11:40:45.268Z,1.00
2019-02-08T11:42:53.620Z,0.30
2019-02-08T11:45:02.024Z,0.20
2019-02-08T11:47:10.597Z,0.90
2019-02-08T11:49:18.259Z,0.30
2019-02-08T11:51:26.332Z,0.30
2019-02-08T11:53:33.799Z,0.30
2019-02-08T11:55:41.284Z,0.30
2019-02-08T11:57:49.462Z,0.30
2019-02-08T11:59:58.222Z,0.50
2019-02-08T12:02:06.742Z,0.30
2019-02-08T12:04:14.120Z,0.40
2019-02-08T12:06:21.614Z,0.20
2019-02-08T12:08:29.570Z,0.20
2019-02-08T12:10:37.507Z,0.50
2019-02-08T12:12:45.129Z,0.63
2019-02-08T12:14:52.730Z,0.20
2019-02-08T12:17:03.378Z,0.37
2019-02-08T12:19:13.026Z,0.20
2019-02-08T12:21:20.306Z,0.20
2019-02-08T12:23:28.928Z,0.53
2019-02-08T12:25:36.538Z,0.30
2019-02-08T12:27:44.192Z,0.50
2019-02-08T12:29:51.560Z,0.30
2019-02-08T12:31:59.772Z,0.40
2019-02-08T12:34:07.590Z,0.27
2019-02-08T12:36:16.303Z,1.20
2019-02-08T12:38:25.754Z,0.20
2019-02-08T12:40:33.144Z,0.20
2019-02-08T12:42:41.220Z,0.50
2019-02-08T12:44:49.684Z,0.27
2019-02-08T12:46:58.970Z,0.20
2019-02-08T12:49:07.038Z,0.10
2019-02-08T12:51:14.327Z,0.23
2019-02-08T12:53:21.713Z,0.23
2019-02-08T12:55:28.997Z,0.20
2019-02-08T12:57:36.387Z,0.20
2019-02-08T12:59:44.378Z,0.30
2019-02-08T13:01:51.789Z,0.33
2019-02-08T13:03:59.245Z,0.30
2019-02-08T13:06:06.856Z,0.10
2019-02-08T13:08:14.395Z,0.63
2019-02-08T13:10:28.159Z,0.20
2019-02-08T13:12:36.249Z,0.40
2019-02-08T13:14:43.667Z,0.20
2019-02-08T13:16:51.156Z,0.20
2019-02-08T13:18:59.974Z,0.20
2019-02-08T13:21:08.245Z,0.20
2019-02-08T13:23:15.730Z,0.30
2019-02-08T13:25:23.300Z,0.10
2019-02-08T13:27:30.624Z,0.60
2019-02-08T13:30:32.275Z,0.20
2019-02-08T13:32:38.037Z,0.30
2019-02-08T13:34:45.519Z,0.20
2019-02-08T13:36:53.040Z,0.20
2019-02-08T13:39:00.900Z,0.20
2019-02-08T13:41:08.270Z,0.30
2019-02-08T13:43:17.746Z,0.30
2019-02-08T13:45:25.008Z,0.50
2019-02-08T13:47:33.171Z,0.40
2019-02-08T13:49:40.367Z,0.17
2019-02-08T13:51:47.603Z,0.33
2019-02-08T13:53:54.964Z,1.80
2019-02-08T13:56:02.321Z,0.43
2019-02-08T13:58:11.000Z,0.20
2019-02-08T14:00:24.111Z,0.20
2019-02-08T14:02:33.588Z,0.20
2019-02-08T14:04:41.845Z,0.40
2019-02-08T14:06:50.864Z,0.20
2019-02-08T14:09:01.757Z,0.30
2019-02-08T14:11:09.911Z,0.20
2019-02-08T14:13:17.307Z,0.20
2019-02-08T14:15:25.036Z,0.30
2019-02-08T14:17:32.452Z,0.20
2019-02-08T14:19:39.679Z,0.60
2019-02-08T14:21:47.052Z,0.27
2019-02-08T14:23:54.680Z,0.40
2019-02-08T14:26:02.023Z,0.60
2019-02-08T14:28:09.461Z,0.20
2019-02-08T14:30:22.556Z,0.83
2019-02-08T14:32:29.793Z,1.00
2019-02-08T14:34:43.504Z,0.27
2019-02-08T14:36:49.319Z,0.10
2019-02-08T14:38:56.915Z,1.63
2019-02-08T14:41:04.105Z,0.37
2019-02-08T14:43:11.444Z,1.70
2019-02-08T14:45:19.705Z,0.90
2019-02-08T14:47:27.088Z,2.33
2019-02-08T14:49:34.110Z,0.90
2019-02-08T14:51:41.693Z,2.60
2019-02-08T14:53:49.161Z,1.83
2019-02-08T14:55:56.596Z,1.30
2019-02-08T14:58:04.473Z,2.03
2019-02-08T15:00:14.813Z,1.50
2019-02-08T15:02:22.324Z,0.40
2019-02-08T15:04:29.281Z,3.47
2019-02-08T15:06:51.950Z,3.90
2019-02-08T15:09:00.279Z,2.23
2019-02-08T15:11:08.108Z,3.83
2019-02-08T15:13:15.178Z,4.07
2019-02-08T15:15:23.000Z,3.47
2019-02-08T15:17:30.509Z,3.27
2019-02-08T15:19:45.624Z,5.53
2019-02-08T15:21:53.890Z,4.03
2019-02-08T15:24:01.706Z,5.37
2019-02-08T15:26:10.107Z,1.63
2019-02-08T15:28:20.970Z,2.50
2019-02-08T15:30:30.820Z,4.20
2019-02-08T15:32:37.929Z,2.53
2019-02-08T15:34:45.717Z,2.97
2019-02-08T15:36:52.826Z,2.07
2019-02-08T15:39:00.658Z,2.13
2019-02-08T15:41:11.471Z,2.60
2019-02-08T15:43:20.056Z,3.63
2019-02-08T15:45:32.584Z,4.00
2019-02-08T15:47:41.346Z,3.53
2019-02-08T15:49:50.222Z,2.97
2019-02-08T15:52:00.316Z,1.87
2019-02-08T15:54:13.857Z,5.80
2019-02-08T15:56:21.497Z,2.13
2019-02-08T15:58:30.882Z,1.23
2019-02-08T16:00:39.021Z,3.13
2019-02-08T16:02:47.818Z,3.03
2019-02-08T16:04:55.116Z,2.80
2019-02-08T16:07:02.626Z,1.13
2019-02-08T16:09:13.601Z,1.93
2019-02-08T16:11:22.344Z,2.67
2019-02-08T16:13:46.982Z,2.20
2019-02-08T16:15:54.558Z,0.97
2019-02-08T16:18:02.274Z,1.57
2019-02-08T16:20:11.010Z,1.50
2019-02-08T16:22:18.677Z,1.90
2019-02-08T16:24:35.609Z,0.90
2019-02-08T16:26:43.161Z,2.67
2019-02-08T16:28:50.521Z,1.43
2019-02-08T16:30:58.030Z,1.33
2019-02-08T16:33:05.719Z,1.27
2019-02-08T16:35:23.290Z,2.57
2019-02-08T16:37:30.673Z,1.93
2019-02-08T16:39:38.021Z,1.87
2019-02-08T16:41:45.555Z,1.33
2019-02-08T16:43:55.227Z,2.13
2019-02-08T16:46:03.027Z,0.80
2019-02-08T16:48:11.655Z,1.27
2019-02-08T16:50:25.025Z,0.90
2019-02-08T16:52:33.216Z,0.80
2019-02-08T16:54:40.518Z,0.63
2019-02-08T16:56:47.792Z,0.83
2019-02-08T16:58:55.973Z,1.83
2019-02-08T17:01:04.825Z,2.40
2019-02-08T17:03:13.664Z,1.13
2019-02-08T17:05:22.035Z,0.90
2019-02-08T17:07:29.394Z,1.63
2019-02-08T17:09:47.480Z,0.60
2019-02-08T17:11:55.893Z,0.53
2019-02-08T17:14:03.152Z,0.50
2019-02-08T17:16:10.907Z,1.07
2019-02-08T17:18:21.278Z,1.07
2019-02-08T17:20:37.921Z,0.60
2019-02-08T17:22:45.388Z,2.45
2019-02-08T17:24:53.202Z,0.63
2019-02-08T17:27:00.594Z,0.33
2019-02-08T17:29:08.723Z,0.88
2019-02-08T17:31:16.986Z,0.63
2019-02-08T17:33:24.569Z,0.50
2019-02-08T17:35:33.018Z,0.45
2019-02-08T17:37:40.827Z,0.30
2019-02-08T17:39:48.066Z,0.30
2019-02-08T17:41:57.818Z,1.20
2019-02-08T17:44:05.458Z,0.70
2019-02-08T17:46:12.681Z,0.50
2019-02-08T17:48:20.199Z,0.90
2019-02-08T17:50:28.307Z,0.40
2019-02-08T17:52:35.385Z,0.42
2019-02-08T17:54:42.875Z,0.77
2019-02-08T17:56:50.280Z,0.80
2019-02-08T17:58:57.267Z,0.50
2019-02-08T18:01:07.110Z,0.40
2019-02-08T18:03:14.388Z,1.80
2019-02-08T18:05:22.639Z,0.40
2019-02-08T18:07:30.507Z,0.57
2019-02-08T18:09:38.189Z,1.53
2019-02-08T18:11:46.067Z,0.50
2019-02-08T18:13:53.566Z,0.57
2019-02-08T18:16:00.765Z,0.40
2019-02-08T18:18:09.014Z,0.87
2019-02-08T18:20:22.603Z,0.50
2019-02-08T18:22:30.348Z,0.40
2019-02-08T18:24:37.723Z,0.25
2019-02-08T18:26:45.260Z,0.40
2019-02-08T18:28:52.729Z,0.20
2019-02-08T18:31:00.031Z,1.40
2019-02-08T18:33:07.753Z,0.40
2019-02-08T18:35:15.466Z,0.42
2019-02-08T18:37:25.852Z,0.30
2019-02-08T18:39:32.894Z,0.43
2019-02-08T18:41:40.225Z,0.40
2019-02-08T18:43:47.769Z,1.02
2019-02-08T18:45:55.074Z,0.43
2019-02-08T18:48:02.238Z,2.53
2019-02-08T18:50:13.453Z,1.93
2019-02-08T18:52:20.874Z,0.53
2019-02-08T18:54:28.387Z,1.70
2019-02-08T18:56:36.352Z,0.30
2019-02-08T18:58:43.892Z,0.40
2019-02-08T19:00:52.317Z,4.10
2019-02-08T19:03:01.666Z,4.40
2019-02-08T19:05:09.803Z,1.30
2019-02-08T19:07:17.295Z,4.03
2019-02-08T19:09:24.703Z,5.13
2019-02-08T19:11:32.241Z,1.52
2019-02-08T19:13:39.336Z,11.03
2019-02-08T19:15:46.712Z,1.02
2019-02-08T19:17:53.976Z,3.13
2019-02-08T19:20:01.278Z,1.33
2019-02-08T19:22:09.327Z,1.22
2019-02-08T19:24:16.882Z,1.27
2019-02-08T19:29:05.003Z,3.55
2019-02-08T19:31:45.995Z,2.85
2019-02-08T19:34:03.467Z,1.57
2019-02-08T19:36:10.957Z,1.25
2019-02-08T19:41:11.071Z,1.37
2019-02-08T19:43:18.589Z,1.95
2019-02-08T19:45:38.240Z,2.70
2019-02-08T19:47:50.126Z,1.82
2019-02-08T19:50:07.941Z,1.07
2019-02-08T19:52:15.948Z,0.50
2019-02-08T19:57:00.409Z,1.60
2019-02-08T19:59:14.071Z,1.87
2019-02-08T20:01:35.595Z,0.30
2019-02-08T20:03:44.945Z,1.60
2019-02-08T20:05:52.294Z,2.13
2019-02-08T20:08:00.400Z,0.70
2019-02-08T20:10:09.547Z,0.30
2019-02-08T20:12:16.810Z,0.95
2019-02-08T20:14:25.114Z,1.42
2019-02-08T20:16:32.528Z,0.80
2019-02-08T20:18:39.906Z,1.17
2019-02-08T20:21:16.300Z,1.65
2019-02-08T20:23:59.744Z,1.77
2019-02-08T20:26:16.167Z,0.40
2019-02-08T20:28:24.236Z,0.53
2019-02-08T20:30:49.859Z,0.83
2019-02-08T20:33:04.577Z,0.40
2019-02-08T20:35:28.427Z,0.47
2019-02-08T20:37:36.326Z,0.40
2019-02-08T20:39:43.614Z,0.40
2019-02-08T20:41:52.261Z,0.43
2019-02-08T20:44:12.946Z,0.87
2019-02-08T20:46:31.623Z,0.77
2019-02-08T20:49:03.925Z,0.80
2019-02-08T20:51:17.392Z,0.40
2019-02-08T20:53:25.127Z,0.47
2019-02-08T20:56:02.871Z,0.43
2019-02-08T20:58:41.199Z,1.67
2019-02-08T21:00:59.271Z,0.75
2019-02-08T21:03:11.156Z,1.47
2019-02-08T21:05:21.638Z,0.33
2019-02-08T21:07:32.907Z,0.37
2019-02-08T21:09:43.549Z,1.07
2019-02-08T21:11:55.074Z,0.40
2019-02-08T21:14:36.251Z,0.87
2019-02-08T21:16:41.900Z,1.85
2019-02-08T21:18:58.908Z,0.30
2019-02-08T21:21:17.843Z,1.70
2019-02-08T21:23:44.334Z,0.47
2019-02-08T21:26:23.510Z,0.77
2019-02-08T21:28:36.735Z,1.03
2019-02-08T21:30:52.423Z,0.90
2019-02-08T21:33:00.504Z,1.87
2019-02-08T21:35:11.550Z,5.10
2019-02-08T21:37:18.425Z,2.97
2019-02-08T21:39:25.279Z,4.95
2019-02-08T21:41:42.459Z,3.00
2019-02-08T21:43:49.888Z,2.27
2019-02-08T21:45:57.867Z,0.83
2019-02-08T21:48:07.461Z,1.90
2019-02-08T21:52:44.358Z,3.23
2019-02-08T21:54:52.088Z,3.23
2019-02-08T21:56:59.425Z,2.60
2019-02-08T21:59:09.466Z,4.57
2019-02-08T22:01:16.831Z,4.00
2019-02-08T22:03:23.974Z,10.73
2019-02-08T22:05:45.778Z,7.53
2019-02-08T22:07:53.653Z,7.33
2019-02-08T22:10:01.392Z,6.87
2019-02-08T22:12:08.553Z,10.60
2019-02-08T22:14:15.653Z,8.43
2019-02-08T22:16:23.240Z,6.77
2019-02-08T22:18:30.662Z,7.53
2019-02-08T22:20:39.383Z,7.53
2019-02-08T22:22:55.363Z,10.27
2019-02-08T22:25:18.170Z,12.73
2019-02-08T22:27:38.727Z,9.28
2019-02-08T22:29:46.397Z,7.30
2019-02-08T22:31:57.379Z,8.97
2019-02-08T22:34:07.689Z,5.67
2019-02-08T22:36:15.497Z,5.43
2019-02-08T22:38:32.814Z,15.10
2019-02-08T22:40:40.541Z,6.47
2019-02-08T22:42:47.384Z,5.70
2019-02-08T22:44:54.888Z,3.40
2019-02-08T22:47:04.607Z,5.90
2019-02-08T22:49:14.739Z,6.47
2019-02-08T22:51:49.605Z,2.73
2019-02-08T22:53:59.977Z,2.53
2019-02-08T22:56:44.691Z,3.53
2019-02-08T22:59:28.103Z,3.90
2019-02-08T23:01:49.168Z,4.67
2019-02-08T23:04:16.999Z,2.43
2019-02-08T23:06:50.388Z,4.10
2019-02-08T23:09:00.169Z,3.33
2019-02-08T23:11:08.650Z,4.87
2019-02-08T23:13:16.270Z,3.40
2019-02-08T23:15:24.056Z,6.40
2019-02-08T23:17:31.266Z,3.00
2019-02-08T23:19:40.585Z,3.37
2019-02-08T23:21:47.660Z,3.67
2019-02-08T23:23:55.013Z,2.03
2019-02-08T23:26:02.229Z,2.97
2019-02-08T23:28:11.143Z,4.13
2019-02-08T23:30:19.177Z,4.77
2019-02-08T23:32:27.018Z,2.50
2019-02-08T23:34:34.760Z,2.33
2019-02-08T23:36:41.957Z,2.93
2019-02-08T23:38:49.307Z,1.23
2019-02-08T23:40:57.427Z,1.80
2019-02-08T23:43:04.774Z,1.73
2019-02-08T23:45:12.217Z,2.00
2019-02-08T23:47:20.790Z,3.57
2019-02-08T23:49:28.099Z,2.47
2019-02-08T23:51:35.493Z,1.20
2019-02-08T23:53:42.729Z,4.97
2019-02-08T23:55:50.198Z,1.37
2019-02-08T23:57:57.322Z,1.00
